sensor_id;sensor_type;location;lat;lon;timestamp;temperature;humidity
3488;DHT22;38546;48.170;11.724;2023-08-07T00:01:13;13.30;99.90
3488;DHT22;38546;48.170;11.724;2023-08-07T00:04:02;13.50;99.90
3488;DHT22;38546;48.170;11.724;2023-08-07T00:06:52;13.40;99.90
3488;DHT22;38546;48.170;11.724;2023-08-07T00:09:41;13.20;99.90
3488;DHT22;38546;48.170;11.724;2023-08-07T00:12:31;13.10;99.90
3488;DHT22;38546;48.170;11.724;2023-08-07T00:15:21;13.20;99.90
3488;DHT22;38546;48.170;11.724;2023-08-07T00:18:10;13.20;99.90
3488;DHT22;38546;48.170;11.724;2023-08-07T00:21:00;13.20;99.90
3488;DHT22;38546;48.170;11.724;2023-08-07T00:23:49;13.20;99.90
3488;DHT22;38546;48.170;11.724;2023-08-07T00:26:39;13.20;99.90
3488;DHT22;38546;48.170;11.724;2023-08-07T00:29:29;13.10;99.90
3488;DHT22;38546;48.170;11.724;2023-08-07T00:32:18;13.10;99.90
3488;DHT22;38546;48.170;11.724;2023-08-07T00:35:08;13.10;99.90
3488;DHT22;38546;48.170;11.724;2023-08-07T00:37:57;12.90;99.90
3488;DHT22;38546;48.170;11.724;2023-08-07T00:40:46;12.60;99.90
3488;DHT22;38546;48.170;11.724;2023-08-07T00:43:36;12.40;99.90
3488;DHT22;38546;48.170;11.724;2023-08-07T00:46:26;12.10;99.90
3488;DHT22;38546;48.170;11.724;2023-08-07T00:49:16;12.00;99.90
3488;DHT22;38546;48.170;11.724;2023-08-07T00:52:07;11.90;99.90
3488;DHT22;38546;48.170;11.724;2023-08-07T00:54:57;11.70;99.90
3488;DHT22;38546;48.170;11.724;2023-08-07T00:57:46;11.70;99.90
3488;DHT22;38546;48.170;11.724;2023-08-07T01:00:35;11.60;99.90
3488;DHT22;38546;48.170;11.724;2023-08-07T01:03:25;11.60;99.90
3488;DHT22;38546;48.170;11.724;2023-08-07T01:06:14;11.50;99.90
3488;DHT22;38546;48.170;11.724;2023-08-07T01:09:04;11.40;99.90
3488;DHT22;38546;48.170;11.724;2023-08-07T01:12:06;11.20;99.90
3488;DHT22;38546;48.170;11.724;2023-08-07T01:15:24;11.30;99.90
3488;DHT22;38546;48.170;11.724;2023-08-07T01:18:16;11.20;99.90
3488;DHT22;38546;48.170;11.724;2023-08-07T01:21:06;11.10;99.90
3488;DHT22;38546;48.170;11.724;2023-08-07T01:23:55;11.10;99.90
3488;DHT22;38546;48.170;11.724;2023-08-07T01:26:45;11.00;99.90
3488;DHT22;38546;48.170;11.724;2023-08-07T01:29:45;11.20;99.90
3488;DHT22;38546;48.170;11.724;2023-08-07T01:34:11;11.10;99.90
3488;DHT22;38546;48.170;11.724;2023-08-07T01:37:03;11.10;99.90
3488;DHT22;38546;48.170;11.724;2023-08-07T01:39:54;11.00;99.90
3488;DHT22;38546;48.170;11.724;2023-08-07T01:42:44;11.00;99.90
3488;DHT22;38546;48.170;11.724;2023-08-07T01:45:34;11.00;99.90
3488;DHT22;38546;48.170;11.724;2023-08-07T01:48:24;11.00;99.90
3488;DHT22;38546;48.170;11.724;2023-08-07T01:51:13;10.90;99.90
3488;DHT22;38546;48.170;11.724;2023-08-07T01:54:02;10.90;99.90
3488;DHT22;38546;48.170;11.724;2023-08-07T01:56:52;10.90;99.90
3488;DHT22;38546;48.170;11.724;2023-08-07T01:59:41;10.90;99.90
3488;DHT22;38546;48.170;11.724;2023-08-07T02:02:31;10.90;99.90
3488;DHT22;38546;48.170;11.724;2023-08-07T02:05:20;10.90;99.90
3488;DHT22;38546;48.170;11.724;2023-08-07T02:08:09;10.80;99.90
3488;DHT22;38546;48.170;11.724;2023-08-07T02:10:58;10.80;99.90
3488;DHT22;38546;48.170;11.724;2023-08-07T02:13:50;10.80;99.90
3488;DHT22;38546;48.170;11.724;2023-08-07T02:16:39;10.80;99.90
3488;DHT22;38546;48.170;11.724;2023-08-07T02:19:28;10.90;99.90
3488;DHT22;38546;48.170;11.724;2023-08-07T02:22:18;10.80;99.90
3488;DHT22;38546;48.170;11.724;2023-08-07T02:25:08;10.80;99.90
3488;DHT22;38546;48.170;11.724;2023-08-07T02:27:58;10.80;99.90
3488;DHT22;38546;48.170;11.724;2023-08-07T02:30:47;10.80;99.90
3488;DHT22;38546;48.170;11.724;2023-08-07T02:33:40;10.80;99.90
3488;DHT22;38546;48.170;11.724;2023-08-07T02:36:30;10.80;99.90
3488;DHT22;38546;48.170;11.724;2023-08-07T02:39:21;10.90;99.90
3488;DHT22;38546;48.170;11.724;2023-08-07T02:42:10;10.80;99.90
3488;DHT22;38546;48.170;11.724;2023-08-07T02:44:59;10.70;99.90
3488;DHT22;38546;48.170;11.724;2023-08-07T02:47:49;10.70;99.90
3488;DHT22;38546;48.170;11.724;2023-08-07T02:50:39;10.80;99.90
3488;DHT22;38546;48.170;11.724;2023-08-07T02:53:28;10.80;99.90
3488;DHT22;38546;48.170;11.724;2023-08-07T02:56:18;10.80;99.90
3488;DHT22;38546;48.170;11.724;2023-08-07T02:59:07;10.80;99.90
3488;DHT22;38546;48.170;11.724;2023-08-07T03:01:56;10.70;99.90
3488;DHT22;38546;48.170;11.724;2023-08-07T03:04:45;10.80;99.90
3488;DHT22;38546;48.170;11.724;2023-08-07T03:07:34;10.90;99.90
3488;DHT22;38546;48.170;11.724;2023-08-07T03:10:24;10.80;99.90
3488;DHT22;38546;48.170;11.724;2023-08-07T03:13:13;10.80;99.90
3488;DHT22;38546;48.170;11.724;2023-08-07T03:16:04;10.90;99.90
3488;DHT22;38546;48.170;11.724;2023-08-07T03:18:54;10.80;99.90
3488;DHT22;38546;48.170;11.724;2023-08-07T03:21:44;10.90;99.90
3488;DHT22;38546;48.170;11.724;2023-08-07T03:24:33;10.90;99.90
3488;DHT22;38546;48.170;11.724;2023-08-07T03:27:22;10.80;99.90
3488;DHT22;38546;48.170;11.724;2023-08-07T03:30:11;10.80;99.90
3488;DHT22;38546;48.170;11.724;2023-08-07T03:33:01;10.80;99.90
3488;DHT22;38546;48.170;11.724;2023-08-07T03:35:50;10.80;99.90
3488;DHT22;38546;48.170;11.724;2023-08-07T03:38:40;10.80;99.90
3488;DHT22;38546;48.170;11.724;2023-08-07T03:41:29;10.90;99.90
3488;DHT22;38546;48.170;11.724;2023-08-07T03:44:18;10.80;99.90
3488;DHT22;38546;48.170;11.724;2023-08-07T03:47:08;10.80;99.90
3488;DHT22;38546;48.170;11.724;2023-08-07T03:49:58;10.80;99.90
3488;DHT22;38546;48.170;11.724;2023-08-07T03:52:47;10.90;99.90
3488;DHT22;38546;48.170;11.724;2023-08-07T03:55:36;11.10;99.90
3488;DHT22;38546;48.170;11.724;2023-08-07T03:58:25;11.10;99.90
3488;DHT22;38546;48.170;11.724;2023-08-07T04:01:14;11.20;99.90
3488;DHT22;38546;48.170;11.724;2023-08-07T04:04:03;11.30;99.90
3488;DHT22;38546;48.170;11.724;2023-08-07T04:06:53;11.30;99.90
3488;DHT22;38546;48.170;11.724;2023-08-07T04:09:42;11.30;99.90
3488;DHT22;38546;48.170;11.724;2023-08-07T04:12:31;11.30;99.90
3488;DHT22;38546;48.170;11.724;2023-08-07T04:15:20;11.40;99.90
3488;DHT22;38546;48.170;11.724;2023-08-07T04:18:10;11.50;99.90
3488;DHT22;38546;48.170;11.724;2023-08-07T04:21:01;11.50;99.90
3488;DHT22;38546;48.170;11.724;2023-08-07T04:23:50;11.50;99.90
3488;DHT22;38546;48.170;11.724;2023-08-07T04:26:40;11.50;99.90
3488;DHT22;38546;48.170;11.724;2023-08-07T04:29:29;11.60;99.90
3488;DHT22;38546;48.170;11.724;2023-08-07T04:32:18;11.70;99.90
3488;DHT22;38546;48.170;11.724;2023-08-07T04:35:08;11.60;99.90
3488;DHT22;38546;48.170;11.724;2023-08-07T04:37:58;11.60;99.90
3488;DHT22;38546;48.170;11.724;2023-08-07T04:40:49;11.60;99.90
3488;DHT22;38546;48.170;11.724;2023-08-07T04:43:39;11.60;99.90
3488;DHT22;38546;48.170;11.724;2023-08-07T04:46:28;11.80;99.90
3488;DHT22;38546;48.170;11.724;2023-08-07T04:49:18;11.80;99.90
3488;DHT22;38546;48.170;11.724;2023-08-07T04:52:08;11.80;99.90
3488;DHT22;38546;48.170;11.724;2023-08-07T04:54:57;11.90;99.90
3488;DHT22;38546;48.170;11.724;2023-08-07T04:57:47;11.90;99.90
3488;DHT22;38546;48.170;11.724;2023-08-07T05:00:36;11.90;99.90
3488;DHT22;38546;48.170;11.724;2023-08-07T05:03:26;12.00;99.90
3488;DHT22;38546;48.170;11.724;2023-08-07T05:06:20;12.00;99.90
3488;DHT22;38546;48.170;11.724;2023-08-07T05:09:09;12.10;99.90
3488;DHT22;38546;48.170;11.724;2023-08-07T05:11:59;12.10;99.90
3488;DHT22;38546;48.170;11.724;2023-08-07T05:14:48;12.10;99.90
3488;DHT22;38546;48.170;11.724;2023-08-07T05:17:37;12.10;99.90
3488;DHT22;38546;48.170;11.724;2023-08-07T05:20:26;12.20;99.90
3488;DHT22;38546;48.170;11.724;2023-08-07T05:23:16;12.10;99.90
3488;DHT22;38546;48.170;11.724;2023-08-07T05:26:05;12.20;99.90
3488;DHT22;38546;48.170;11.724;2023-08-07T05:28:55;12.30;99.90
3488;DHT22;38546;48.170;11.724;2023-08-07T05:31:46;12.20;99.90
3488;DHT22;38546;48.170;11.724;2023-08-07T05:34:35;12.20;99.90
3488;DHT22;38546;48.170;11.724;2023-08-07T05:37:25;12.30;99.90
3488;DHT22;38546;48.170;11.724;2023-08-07T05:40:15;12.40;99.90
3488;DHT22;38546;48.170;11.724;2023-08-07T05:43:05;12.40;99.90
3488;DHT22;38546;48.170;11.724;2023-08-07T05:45:54;12.50;99.90
3488;DHT22;38546;48.170;11.724;2023-08-07T05:48:43;12.40;99.90
3488;DHT22;38546;48.170;11.724;2023-08-07T05:51:33;12.40;99.90
3488;DHT22;38546;48.170;11.724;2023-08-07T05:54:22;12.30;99.90
3488;DHT22;38546;48.170;11.724;2023-08-07T05:57:11;12.30;99.90
3488;DHT22;38546;48.170;11.724;2023-08-07T06:00:00;12.40;99.90
3488;DHT22;38546;48.170;11.724;2023-08-07T06:02:50;12.40;99.90
3488;DHT22;38546;48.170;11.724;2023-08-07T06:05:40;12.40;99.90
3488;DHT22;38546;48.170;11.724;2023-08-07T06:08:29;12.50;99.90
3488;DHT22;38546;48.170;11.724;2023-08-07T06:11:19;12.50;99.90
3488;DHT22;38546;48.170;11.724;2023-08-07T06:14:09;12.60;99.90
3488;DHT22;38546;48.170;11.724;2023-08-07T06:16:59;12.70;99.90
3488;DHT22;38546;48.170;11.724;2023-08-07T06:19:50;12.70;99.90
3488;DHT22;38546;48.170;11.724;2023-08-07T06:22:41;12.80;99.90
3488;DHT22;38546;48.170;11.724;2023-08-07T06:25:30;12.80;99.90
3488;DHT22;38546;48.170;11.724;2023-08-07T06:28:19;12.90;99.90
3488;DHT22;38546;48.170;11.724;2023-08-07T06:31:11;12.90;99.90
3488;DHT22;38546;48.170;11.724;2023-08-07T06:34:01;13.00;99.90
3488;DHT22;38546;48.170;11.724;2023-08-07T06:36:50;12.90;99.90
3488;DHT22;38546;48.170;11.724;2023-08-07T06:39:39;13.10;99.90
3488;DHT22;38546;48.170;11.724;2023-08-07T06:42:28;13.10;99.90
3488;DHT22;38546;48.170;11.724;2023-08-07T06:45:16;13.20;99.90
3488;DHT22;38546;48.170;11.724;2023-08-07T06:48:06;13.30;99.90
3488;DHT22;38546;48.170;11.724;2023-08-07T06:50:55;13.30;99.90
3488;DHT22;38546;48.170;11.724;2023-08-07T06:53:44;13.40;99.90
3488;DHT22;38546;48.170;11.724;2023-08-07T06:56:33;13.30;99.90
3488;DHT22;38546;48.170;11.724;2023-08-07T06:59:23;13.30;99.90
3488;DHT22;38546;48.170;11.724;2023-08-07T07:02:13;13.40;99.90
3488;DHT22;38546;48.170;11.724;2023-08-07T07:05:02;13.40;99.90
3488;DHT22;38546;48.170;11.724;2023-08-07T07:07:51;13.40;99.90
3488;DHT22;38546;48.170;11.724;2023-08-07T07:10:40;13.60;99.90
3488;DHT22;38546;48.170;11.724;2023-08-07T07:13:29;13.60;99.90
3488;DHT22;38546;48.170;11.724;2023-08-07T07:16:19;13.70;99.90
3488;DHT22;38546;48.170;11.724;2023-08-07T07:19:10;13.80;99.90
3488;DHT22;38546;48.170;11.724;2023-08-07T07:21:59;13.80;99.90
3488;DHT22;38546;48.170;11.724;2023-08-07T07:24:48;13.80;99.90
3488;DHT22;38546;48.170;11.724;2023-08-07T07:27:39;13.90;99.90
3488;DHT22;38546;48.170;11.724;2023-08-07T07:30:28;14.00;99.90
3488;DHT22;38546;48.170;11.724;2023-08-07T07:33:17;14.00;99.90
3488;DHT22;38546;48.170;11.724;2023-08-07T07:36:07;14.20;99.90
3488;DHT22;38546;48.170;11.724;2023-08-07T07:38:56;14.00;99.90
3488;DHT22;38546;48.170;11.724;2023-08-07T07:41:45;14.00;99.90
3488;DHT22;38546;48.170;11.724;2023-08-07T07:44:35;14.10;99.90
3488;DHT22;38546;48.170;11.724;2023-08-07T07:47:28;14.10;99.90
3488;DHT22;38546;48.170;11.724;2023-08-07T07:50:17;14.40;99.90
3488;DHT22;38546;48.170;11.724;2023-08-07T07:53:07;14.60;99.90
3488;DHT22;38546;48.170;11.724;2023-08-07T07:55:56;14.60;99.90
3488;DHT22;38546;48.170;11.724;2023-08-07T07:58:45;14.70;99.90
3488;DHT22;38546;48.170;11.724;2023-08-07T08:01:34;14.70;99.90
3488;DHT22;38546;48.170;11.724;2023-08-07T08:04:24;14.80;99.90
3488;DHT22;38546;48.170;11.724;2023-08-07T08:07:13;14.70;99.90
3488;DHT22;38546;48.170;11.724;2023-08-07T08:10:03;14.50;99.90
3488;DHT22;38546;48.170;11.724;2023-08-07T08:12:56;14.70;99.90
3488;DHT22;38546;48.170;11.724;2023-08-07T08:15:45;14.80;99.90
3488;DHT22;38546;48.170;11.724;2023-08-07T08:18:35;14.70;99.90
3488;DHT22;38546;48.170;11.724;2023-08-07T08:21:24;14.60;99.90
3488;DHT22;38546;48.170;11.724;2023-08-07T08:24:14;14.90;99.90
3488;DHT22;38546;48.170;11.724;2023-08-07T08:27:04;15.00;99.90
3488;DHT22;38546;48.170;11.724;2023-08-07T08:29:53;15.10;99.90
3488;DHT22;38546;48.170;11.724;2023-08-07T08:32:43;15.20;99.90
3488;DHT22;38546;48.170;11.724;2023-08-07T08:35:33;15.20;99.90
3488;DHT22;38546;48.170;11.724;2023-08-07T08:38:22;15.20;99.90
3488;DHT22;38546;48.170;11.724;2023-08-07T08:41:12;15.10;99.90
3488;DHT22;38546;48.170;11.724;2023-08-07T08:44:04;15.10;99.90
3488;DHT22;38546;48.170;11.724;2023-08-07T08:46:54;15.10;99.90
3488;DHT22;38546;48.170;11.724;2023-08-07T08:50:01;15.00;99.90
3488;DHT22;38546;48.170;11.724;2023-08-07T08:52:53;15.10;99.90
3488;DHT22;38546;48.170;11.724;2023-08-07T08:55:45;15.20;99.90
3488;DHT22;38546;48.170;11.724;2023-08-07T08:58:36;15.20;99.90
3488;DHT22;38546;48.170;11.724;2023-08-07T09:01:27;15.20;99.90
3488;DHT22;38546;48.170;11.724;2023-08-07T09:04:18;15.00;99.90
3488;DHT22;38546;48.170;11.724;2023-08-07T09:07:08;15.10;99.90
3488;DHT22;38546;48.170;11.724;2023-08-07T09:09:58;15.00;99.90
3488;DHT22;38546;48.170;11.724;2023-08-07T09:13:00;15.00;99.90
3488;DHT22;38546;48.170;11.724;2023-08-07T09:15:50;15.00;99.90
3488;DHT22;38546;48.170;11.724;2023-08-07T09:18:40;15.30;99.90
3488;DHT22;38546;48.170;11.724;2023-08-07T09:21:30;15.30;99.90
3488;DHT22;38546;48.170;11.724;2023-08-07T09:24:19;15.10;99.90
3488;DHT22;38546;48.170;11.724;2023-08-07T09:27:11;15.10;99.90
3488;DHT22;38546;48.170;11.724;2023-08-07T09:30:00;15.00;99.90
3488;DHT22;38546;48.170;11.724;2023-08-07T09:32:51;14.90;99.90
3488;DHT22;38546;48.170;11.724;2023-08-07T09:35:40;15.00;99.90
3488;DHT22;38546;48.170;11.724;2023-08-07T09:38:30;15.10;99.90
3488;DHT22;38546;48.170;11.724;2023-08-07T09:41:21;15.10;99.90
3488;DHT22;38546;48.170;11.724;2023-08-07T09:44:11;15.40;99.90
3488;DHT22;38546;48.170;11.724;2023-08-07T09:47:00;15.60;99.90
3488;DHT22;38546;48.170;11.724;2023-08-07T09:50:00;15.60;99.90
3488;DHT22;38546;48.170;11.724;2023-08-07T09:52:49;15.70;99.90
3488;DHT22;38546;48.170;11.724;2023-08-07T09:55:38;15.90;99.90
3488;DHT22;38546;48.170;11.724;2023-08-07T09:58:28;16.40;99.90
3488;DHT22;38546;48.170;11.724;2023-08-07T10:01:18;16.50;99.90
3488;DHT22;38546;48.170;11.724;2023-08-07T10:04:08;16.80;99.90
3488;DHT22;38546;48.170;11.724;2023-08-07T10:06:58;16.80;99.90
3488;DHT22;38546;48.170;11.724;2023-08-07T10:09:48;16.80;99.90
3488;DHT22;38546;48.170;11.724;2023-08-07T10:12:38;16.90;99.90
3488;DHT22;38546;48.170;11.724;2023-08-07T10:15:29;16.70;99.90
3488;DHT22;38546;48.170;11.724;2023-08-07T10:18:20;16.90;99.90
3488;DHT22;38546;48.170;11.724;2023-08-07T10:21:10;17.10;99.90
3488;DHT22;38546;48.170;11.724;2023-08-07T10:24:03;17.00;99.90
3488;DHT22;38546;48.170;11.724;2023-08-07T10:26:54;17.10;99.90
3488;DHT22;38546;48.170;11.724;2023-08-07T10:29:47;17.10;99.90
3488;DHT22;38546;48.170;11.724;2023-08-07T10:32:37;17.10;99.90
3488;DHT22;38546;48.170;11.724;2023-08-07T10:35:31;17.30;99.90
3488;DHT22;38546;48.170;11.724;2023-08-07T10:38:23;17.10;99.90
3488;DHT22;38546;48.170;11.724;2023-08-07T10:41:14;17.30;99.90
3488;DHT22;38546;48.170;11.724;2023-08-07T10:44:03;17.20;99.90
3488;DHT22;38546;48.170;11.724;2023-08-07T10:46:54;17.30;99.90
3488;DHT22;38546;48.170;11.724;2023-08-07T10:49:46;17.40;99.90
3488;DHT22;38546;48.170;11.724;2023-08-07T10:52:38;17.30;99.90
3488;DHT22;38546;48.170;11.724;2023-08-07T10:55:48;17.30;99.90
3488;DHT22;38546;48.170;11.724;2023-08-07T10:58:40;17.40;99.90
3488;DHT22;38546;48.170;11.724;2023-08-07T11:01:51;17.50;99.90
3488;DHT22;38546;48.170;11.724;2023-08-07T11:04:43;17.20;99.90
3488;DHT22;38546;48.170;11.724;2023-08-07T11:07:33;17.30;99.90
3488;DHT22;38546;48.170;11.724;2023-08-07T11:10:24;17.20;99.90
3488;DHT22;38546;48.170;11.724;2023-08-07T11:13:13;17.30;99.90
3488;DHT22;38546;48.170;11.724;2023-08-07T11:16:03;17.30;99.90
3488;DHT22;38546;48.170;11.724;2023-08-07T11:18:53;17.20;99.90
3488;DHT22;38546;48.170;11.724;2023-08-07T11:21:43;17.10;99.90
3488;DHT22;38546;48.170;11.724;2023-08-07T11:24:33;17.00;99.90
3488;DHT22;38546;48.170;11.724;2023-08-07T11:27:23;17.30;99.90
3488;DHT22;38546;48.170;11.724;2023-08-07T11:30:12;17.40;99.90
3488;DHT22;38546;48.170;11.724;2023-08-07T11:33:02;17.70;99.90
3488;DHT22;38546;48.170;11.724;2023-08-07T11:35:52;18.10;99.90
3488;DHT22;38546;48.170;11.724;2023-08-07T11:38:43;18.10;99.90
3488;DHT22;38546;48.170;11.724;2023-08-07T11:41:33;18.10;99.90
3488;DHT22;38546;48.170;11.724;2023-08-07T11:44:23;17.70;99.90
3488;DHT22;38546;48.170;11.724;2023-08-07T11:47:13;17.40;99.90
3488;DHT22;38546;48.170;11.724;2023-08-07T11:50:05;17.10;99.90
3488;DHT22;38546;48.170;11.724;2023-08-07T11:52:55;16.90;99.90
3488;DHT22;38546;48.170;11.724;2023-08-07T11:56:26;16.80;99.90
3488;DHT22;38546;48.170;11.724;2023-08-07T11:59:17;17.00;99.90
3488;DHT22;38546;48.170;11.724;2023-08-07T12:02:11;17.00;99.90
3488;DHT22;38546;48.170;11.724;2023-08-07T12:05:00;17.30;99.90
3488;DHT22;38546;48.170;11.724;2023-08-07T12:07:50;17.60;99.90
3488;DHT22;38546;48.170;11.724;2023-08-07T12:10:39;17.90;99.90
3488;DHT22;38546;48.170;11.724;2023-08-07T12:13:29;18.20;99.90
3488;DHT22;38546;48.170;11.724;2023-08-07T12:16:21;18.40;99.90
3488;DHT22;38546;48.170;11.724;2023-08-07T12:19:10;18.60;99.90
3488;DHT22;38546;48.170;11.724;2023-08-07T12:21:59;18.90;99.90
3488;DHT22;38546;48.170;11.724;2023-08-07T12:24:49;19.10;99.90
3488;DHT22;38546;48.170;11.724;2023-08-07T12:27:39;19.40;99.90
3488;DHT22;38546;48.170;11.724;2023-08-07T12:30:28;19.60;99.90
3488;DHT22;38546;48.170;11.724;2023-08-07T12:33:22;19.70;99.90
3488;DHT22;38546;48.170;11.724;2023-08-07T12:36:12;19.40;99.90
3488;DHT22;38546;48.170;11.724;2023-08-07T12:39:03;19.10;99.90
3488;DHT22;38546;48.170;11.724;2023-08-07T12:41:55;19.00;99.90
3488;DHT22;38546;48.170;11.724;2023-08-07T12:44:45;19.00;99.90
3488;DHT22;38546;48.170;11.724;2023-08-07T12:47:34;18.70;99.90
3488;DHT22;38546;48.170;11.724;2023-08-07T12:50:23;18.60;99.90
3488;DHT22;38546;48.170;11.724;2023-08-07T12:53:13;18.80;99.50
3488;DHT22;38546;48.170;11.724;2023-08-07T12:56:02;18.60;99.10
3488;DHT22;38546;48.170;11.724;2023-08-07T12:58:54;18.60;99.90
3488;DHT22;38546;48.170;11.724;2023-08-07T13:01:44;18.70;99.50
3488;DHT22;38546;48.170;11.724;2023-08-07T13:04:33;18.50;99.10
3488;DHT22;38546;48.170;11.724;2023-08-07T13:07:23;18.30;99.00
3488;DHT22;38546;48.170;11.724;2023-08-07T13:10:15;18.40;99.90
3488;DHT22;38546;48.170;11.724;2023-08-07T13:13:05;18.40;99.90
3488;DHT22;38546;48.170;11.724;2023-08-07T13:15:55;18.30;99.90
3488;DHT22;38546;48.170;11.724;2023-08-07T13:18:44;18.30;99.90
3488;DHT22;38546;48.170;11.724;2023-08-07T13:21:33;18.10;99.90
3488;DHT22;38546;48.170;11.724;2023-08-07T13:24:23;18.00;99.90
3488;DHT22;38546;48.170;11.724;2023-08-07T13:27:12;18.00;99.90
3488;DHT22;38546;48.170;11.724;2023-08-07T13:30:03;18.10;99.90
3488;DHT22;38546;48.170;11.724;2023-08-07T13:32:54;18.30;98.60
3488;DHT22;38546;48.170;11.724;2023-08-07T13:35:43;18.30;99.10
3488;DHT22;38546;48.170;11.724;2023-08-07T13:38:33;18.40;98.10
3488;DHT22;38546;48.170;11.724;2023-08-07T13:41:23;18.50;98.50
3488;DHT22;38546;48.170;11.724;2023-08-07T13:44:12;18.40;98.80
3488;DHT22;38546;48.170;11.724;2023-08-07T13:47:02;18.30;99.20
3488;DHT22;38546;48.170;11.724;2023-08-07T13:49:52;18.00;98.80
3488;DHT22;38546;48.170;11.724;2023-08-07T13:52:43;17.80;98.90
3488;DHT22;38546;48.170;11.724;2023-08-07T13:55:32;17.60;99.50
3488;DHT22;38546;48.170;11.724;2023-08-07T13:58:21;17.50;99.50
3488;DHT22;38546;48.170;11.724;2023-08-07T14:01:11;17.90;99.90
3488;DHT22;38546;48.170;11.724;2023-08-07T14:04:00;18.10;99.40
3488;DHT22;38546;48.170;11.724;2023-08-07T14:06:51;18.20;99.60
3488;DHT22;38546;48.170;11.724;2023-08-07T14:09:40;18.20;98.70
3488;DHT22;38546;48.170;11.724;2023-08-07T14:12:29;18.30;98.90
3488;DHT22;38546;48.170;11.724;2023-08-07T14:15:18;18.50;99.20
3488;DHT22;38546;48.170;11.724;2023-08-07T14:18:08;18.60;97.60
3488;DHT22;38546;48.170;11.724;2023-08-07T14:20:58;18.40;96.60
3488;DHT22;38546;48.170;11.724;2023-08-07T14:23:48;18.50;97.00
3488;DHT22;38546;48.170;11.724;2023-08-07T14:26:39;18.50;97.70
3488;DHT22;38546;48.170;11.724;2023-08-07T14:29:28;18.70;97.30
3488;DHT22;38546;48.170;11.724;2023-08-07T14:32:18;18.70;96.80
3488;DHT22;38546;48.170;11.724;2023-08-07T14:35:07;18.90;97.00
3488;DHT22;38546;48.170;11.724;2023-08-07T14:37:57;19.00;96.90
3488;DHT22;38546;48.170;11.724;2023-08-07T14:40:46;18.90;97.40
3488;DHT22;38546;48.170;11.724;2023-08-07T14:43:36;18.60;97.80
3488;DHT22;38546;48.170;11.724;2023-08-07T14:46:25;18.70;97.10
3488;DHT22;38546;48.170;11.724;2023-08-07T14:49:15;18.60;97.70
3488;DHT22;38546;48.170;11.724;2023-08-07T14:52:05;18.30;97.50
3488;DHT22;38546;48.170;11.724;2023-08-07T14:54:56;18.20;98.00
3488;DHT22;38546;48.170;11.724;2023-08-07T14:57:46;18.10;97.90
3488;DHT22;38546;48.170;11.724;2023-08-07T15:00:36;18.00;97.70
3488;DHT22;38546;48.170;11.724;2023-08-07T15:03:25;17.80;98.70
3488;DHT22;38546;48.170;11.724;2023-08-07T15:06:15;17.50;98.50
3488;DHT22;38546;48.170;11.724;2023-08-07T15:09:04;17.40;98.80
3488;DHT22;38546;48.170;11.724;2023-08-07T15:11:54;17.20;98.80
3488;DHT22;38546;48.170;11.724;2023-08-07T15:14:43;17.10;98.70
3488;DHT22;38546;48.170;11.724;2023-08-07T15:17:33;17.20;98.70
3488;DHT22;38546;48.170;11.724;2023-08-07T15:20:23;17.40;98.90
3488;DHT22;38546;48.170;11.724;2023-08-07T15:23:13;17.40;99.10
3488;DHT22;38546;48.170;11.724;2023-08-07T15:26:03;17.60;98.60
3488;DHT22;38546;48.170;11.724;2023-08-07T15:28:52;17.40;98.50
3488;DHT22;38546;48.170;11.724;2023-08-07T15:31:41;17.30;99.50
3488;DHT22;38546;48.170;11.724;2023-08-07T15:34:30;17.30;99.20
3488;DHT22;38546;48.170;11.724;2023-08-07T15:37:19;17.40;98.90
3488;DHT22;38546;48.170;11.724;2023-08-07T15:40:09;17.20;99.20
3488;DHT22;38546;48.170;11.724;2023-08-07T15:42:59;17.20;99.50
3488;DHT22;38546;48.170;11.724;2023-08-07T15:45:52;17.50;99.60
3488;DHT22;38546;48.170;11.724;2023-08-07T15:48:42;17.70;99.90
3488;DHT22;38546;48.170;11.724;2023-08-07T15:51:31;17.80;99.90
3488;DHT22;38546;48.170;11.724;2023-08-07T15:54:21;17.70;99.80
3488;DHT22;38546;48.170;11.724;2023-08-07T15:57:11;17.70;99.90
3488;DHT22;38546;48.170;11.724;2023-08-07T16:00:00;17.60;99.90
3488;DHT22;38546;48.170;11.724;2023-08-07T16:02:50;17.50;99.90
3488;DHT22;38546;48.170;11.724;2023-08-07T16:05:39;17.20;99.90
3488;DHT22;38546;48.170;11.724;2023-08-07T16:08:29;17.10;99.90
3488;DHT22;38546;48.170;11.724;2023-08-07T16:11:18;16.90;99.90
3488;DHT22;38546;48.170;11.724;2023-08-07T16:14:08;16.70;99.90
3488;DHT22;38546;48.170;11.724;2023-08-07T16:16:58;16.50;99.90
3488;DHT22;38546;48.170;11.724;2023-08-07T16:19:47;16.40;99.90
3488;DHT22;38546;48.170;11.724;2023-08-07T16:22:37;16.30;99.90
3488;DHT22;38546;48.170;11.724;2023-08-07T16:25:26;16.30;99.90
3488;DHT22;38546;48.170;11.724;2023-08-07T16:28:16;16.10;99.90
3488;DHT22;38546;48.170;11.724;2023-08-07T16:31:05;16.00;99.90
3488;DHT22;38546;48.170;11.724;2023-08-07T16:33:55;15.80;99.90
3488;DHT22;38546;48.170;11.724;2023-08-07T16:36:45;15.20;99.90
3488;DHT22;38546;48.170;11.724;2023-08-07T16:39:34;14.60;99.90
3488;DHT22;38546;48.170;11.724;2023-08-07T16:42:24;14.20;99.90
3488;DHT22;38546;48.170;11.724;2023-08-07T16:45:14;13.80;99.90
3488;DHT22;38546;48.170;11.724;2023-08-07T16:48:04;13.70;99.90
3488;DHT22;38546;48.170;11.724;2023-08-07T16:50:54;13.80;99.90
3488;DHT22;38546;48.170;11.724;2023-08-07T16:53:43;13.70;99.90
3488;DHT22;38546;48.170;11.724;2023-08-07T16:56:32;13.70;99.90
3488;DHT22;38546;48.170;11.724;2023-08-07T16:59:21;13.70;99.90
3488;DHT22;38546;48.170;11.724;2023-08-07T17:02:11;13.70;99.90
3488;DHT22;38546;48.170;11.724;2023-08-07T17:05:01;13.80;99.90
3488;DHT22;38546;48.170;11.724;2023-08-07T17:07:50;13.80;99.90
3488;DHT22;38546;48.170;11.724;2023-08-07T17:10:39;14.00;99.90
3488;DHT22;38546;48.170;11.724;2023-08-07T17:13:29;14.00;99.90
3488;DHT22;38546;48.170;11.724;2023-08-07T17:16:19;14.00;99.90
3488;DHT22;38546;48.170;11.724;2023-08-07T17:19:08;14.10;99.90
3488;DHT22;38546;48.170;11.724;2023-08-07T17:21:57;14.30;99.90
3488;DHT22;38546;48.170;11.724;2023-08-07T17:24:46;14.40;99.90
3488;DHT22;38546;48.170;11.724;2023-08-07T17:27:34;14.50;99.90
3488;DHT22;38546;48.170;11.724;2023-08-07T17:30:23;14.60;99.90
3488;DHT22;38546;48.170;11.724;2023-08-07T17:33:13;14.60;99.90
3488;DHT22;38546;48.170;11.724;2023-08-07T17:36:02;14.60;99.90
3488;DHT22;38546;48.170;11.724;2023-08-07T17:38:51;14.70;99.90
3488;DHT22;38546;48.170;11.724;2023-08-07T17:41:40;14.60;99.90
3488;DHT22;38546;48.170;11.724;2023-08-07T17:44:29;14.70;99.90
3488;DHT22;38546;48.170;11.724;2023-08-07T17:47:18;14.70;99.90
3488;DHT22;38546;48.170;11.724;2023-08-07T17:50:07;14.80;99.90
3488;DHT22;38546;48.170;11.724;2023-08-07T17:52:58;14.70;99.90
3488;DHT22;38546;48.170;11.724;2023-08-07T17:55:47;14.80;99.90